sensor_id;sensor_type;location;lat;lon;timestamp;P1;durP1;ratioP1;P2;durP2;ratioP2
61291;SDS011;47165;42.664;23.368;2022-07-29T00:00:06;6.90;;;5.03;;
61291;SDS011;47165;42.664;23.368;2022-07-29T00:02:33;8.10;;;5.40;;
61291;SDS011;47165;42.664;23.368;2022-07-29T00:04:58;9.18;;;5.15;;
61291;SDS011;47165;42.664;23.368;2022-07-29T00:07:24;7.55;;;4.75;;
61291;SDS011;47165;42.664;23.368;2022-07-29T00:09:50;7.40;;;4.72;;
61291;SDS011;47165;42.664;23.368;2022-07-29T00:12:16;7.50;;;5.45;;
61291;SDS011;47165;42.664;23.368;2022-07-29T00:14:41;7.55;;;5.13;;
61291;SDS011;47165;42.664;23.368;2022-07-29T00:17:07;7.95;;;5.15;;
61291;SDS011;47165;42.664;23.368;2022-07-29T00:19:32;7.00;;;4.63;;
61291;SDS011;47165;42.664;23.368;2022-07-29T00:21:59;7.03;;;4.88;;
61291;SDS011;47165;42.664;23.368;2022-07-29T00:24:25;7.22;;;4.38;;
61291;SDS011;47165;42.664;23.368;2022-07-29T00:26:50;8.60;;;4.60;;
61291;SDS011;47165;42.664;23.368;2022-07-29T00:29:15;6.75;;;5.03;;
61291;SDS011;47165;42.664;23.368;2022-07-29T00:31:41;6.07;;;4.88;;
61291;SDS011;47165;42.664;23.368;2022-07-29T00:34:06;6.53;;;4.30;;
61291;SDS011;47165;42.664;23.368;2022-07-29T00:36:52;8.10;;;5.32;;
61291;SDS011;47165;42.664;23.368;2022-07-29T00:39:17;8.15;;;5.18;;
61291;SDS011;47165;42.664;23.368;2022-07-29T00:41:43;8.23;;;5.05;;
61291;SDS011;47165;42.664;23.368;2022-07-29T00:44:08;7.00;;;4.82;;
61291;SDS011;47165;42.664;23.368;2022-07-29T00:46:33;7.72;;;5.30;;
61291;SDS011;47165;42.664;23.368;2022-07-29T00:48:59;8.07;;;5.00;;
61291;SDS011;47165;42.664;23.368;2022-07-29T00:51:25;8.18;;;5.13;;
61291;SDS011;47165;42.664;23.368;2022-07-29T00:53:51;6.95;;;4.57;;
61291;SDS011;47165;42.664;23.368;2022-07-29T00:56:17;8.45;;;6.35;;
61291;SDS011;47165;42.664;23.368;2022-07-29T00:58:43;6.35;;;4.75;;
61291;SDS011;47165;42.664;23.368;2022-07-29T01:01:11;7.15;;;5.32;;
61291;SDS011;47165;42.664;23.368;2022-07-29T01:03:37;6.95;;;5.22;;
61291;SDS011;47165;42.664;23.368;2022-07-29T01:06:02;10.98;;;5.80;;
61291;SDS011;47165;42.664;23.368;2022-07-29T01:08:29;6.90;;;5.28;;
61291;SDS011;47165;42.664;23.368;2022-07-29T01:10:57;8.70;;;5.90;;
61291;SDS011;47165;42.664;23.368;2022-07-29T01:13:24;17.15;;;5.93;;
61291;SDS011;47165;42.664;23.368;2022-07-29T01:15:58;6.78;;;5.20;;
61291;SDS011;47165;42.664;23.368;2022-07-29T01:18:30;9.10;;;5.90;;
61291;SDS011;47165;42.664;23.368;2022-07-29T01:26:45;10.43;;;7.10;;
61291;SDS011;47165;42.664;23.368;2022-07-29T01:29:34;11.63;;;7.53;;
61291;SDS011;47165;42.664;23.368;2022-07-29T01:32:07;9.38;;;6.57;;
61291;SDS011;47165;42.664;23.368;2022-07-29T01:34:39;12.98;;;7.55;;
61291;SDS011;47165;42.664;23.368;2022-07-29T01:37:18;8.80;;;6.30;;
61291;SDS011;47165;42.664;23.368;2022-07-29T01:39:47;10.18;;;6.85;;
61291;SDS011;47165;42.664;23.368;2022-07-29T01:47:20;6.80;;;5.55;;
61291;SDS011;47165;42.664;23.368;2022-07-29T01:49:49;8.38;;;6.25;;
61291;SDS011;47165;42.664;23.368;2022-07-29T01:52:39;9.20;;;6.97;;
61291;SDS011;47165;42.664;23.368;2022-07-29T01:55:25;11.15;;;6.38;;
61291;SDS011;47165;42.664;23.368;2022-07-29T01:57:57;11.88;;;6.93;;
61291;SDS011;47165;42.664;23.368;2022-07-29T02:00:25;11.32;;;7.03;;
61291;SDS011;47165;42.664;23.368;2022-07-29T02:02:51;11.35;;;7.20;;
61291;SDS011;47165;42.664;23.368;2022-07-29T02:05:20;13.15;;;6.97;;
61291;SDS011;47165;42.664;23.368;2022-07-29T02:07:48;13.18;;;7.65;;
61291;SDS011;47165;42.664;23.368;2022-07-29T02:10:15;9.82;;;6.63;;
61291;SDS011;47165;42.664;23.368;2022-07-29T02:12:43;12.90;;;7.63;;
61291;SDS011;47165;42.664;23.368;2022-07-29T02:15:11;12.68;;;6.72;;
61291;SDS011;47165;42.664;23.368;2022-07-29T02:17:42;10.80;;;7.20;;
61291;SDS011;47165;42.664;23.368;2022-07-29T02:20:22;9.60;;;6.80;;
61291;SDS011;47165;42.664;23.368;2022-07-29T02:22:50;11.52;;;6.40;;
61291;SDS011;47165;42.664;23.368;2022-07-29T02:25:17;10.68;;;6.85;;
61291;SDS011;47165;42.664;23.368;2022-07-29T02:27:43;10.75;;;6.60;;
61291;SDS011;47165;42.664;23.368;2022-07-29T02:30:10;8.68;;;6.55;;
61291;SDS011;47165;42.664;23.368;2022-07-29T02:32:37;8.60;;;6.20;;
61291;SDS011;47165;42.664;23.368;2022-07-29T02:35:05;9.23;;;6.35;;
61291;SDS011;47165;42.664;23.368;2022-07-29T02:37:32;10.13;;;6.43;;
61291;SDS011;47165;42.664;23.368;2022-07-29T02:39:58;6.05;;;4.82;;
61291;SDS011;47165;42.664;23.368;2022-07-29T02:42:26;9.73;;;6.15;;
61291;SDS011;47165;42.664;23.368;2022-07-29T02:44:52;11.88;;;5.78;;
61291;SDS011;47165;42.664;23.368;2022-07-29T02:52:56;6.90;;;5.15;;
61291;SDS011;47165;42.664;23.368;2022-07-29T03:00:58;7.85;;;5.07;;
61291;SDS011;47165;42.664;23.368;2022-07-29T03:03:35;8.07;;;5.13;;
61291;SDS011;47165;42.664;23.368;2022-07-29T03:06:03;6.85;;;4.70;;
61291;SDS011;47165;42.664;23.368;2022-07-29T03:08:30;8.48;;;3.88;;
61291;SDS011;47165;42.664;23.368;2022-07-29T03:10:57;9.32;;;4.57;;
61291;SDS011;47165;42.664;23.368;2022-07-29T03:13:23;6.35;;;4.65;;
61291;SDS011;47165;42.664;23.368;2022-07-29T03:15:49;7.47;;;4.93;;
61291;SDS011;47165;42.664;23.368;2022-07-29T03:18:15;8.52;;;4.70;;
61291;SDS011;47165;42.664;23.368;2022-07-29T03:20:41;6.18;;;4.35;;
61291;SDS011;47165;42.664;23.368;2022-07-29T03:23:09;9.88;;;5.03;;
61291;SDS011;47165;42.664;23.368;2022-07-29T03:25:35;8.65;;;5.97;;
61291;SDS011;47165;42.664;23.368;2022-07-29T03:28:00;8.57;;;5.32;;
61291;SDS011;47165;42.664;23.368;2022-07-29T03:30:26;6.53;;;4.00;;
61291;SDS011;47165;42.664;23.368;2022-07-29T03:32:52;8.00;;;5.03;;
61291;SDS011;47165;42.664;23.368;2022-07-29T03:35:18;9.02;;;5.57;;
61291;SDS011;47165;42.664;23.368;2022-07-29T03:37:44;8.55;;;5.35;;
61291;SDS011;47165;42.664;23.368;2022-07-29T03:40:10;9.02;;;5.63;;
61291;SDS011;47165;42.664;23.368;2022-07-29T03:42:39;10.02;;;6.88;;
61291;SDS011;47165;42.664;23.368;2022-07-29T03:45:07;9.60;;;6.60;;
61291;SDS011;47165;42.664;23.368;2022-07-29T03:47:37;9.98;;;7.20;;
61291;SDS011;47165;42.664;23.368;2022-07-29T03:50:07;9.93;;;6.47;;
61291;SDS011;47165;42.664;23.368;2022-07-29T03:52:35;11.48;;;7.15;;
61291;SDS011;47165;42.664;23.368;2022-07-29T03:55:01;9.57;;;6.78;;
61291;SDS011;47165;42.664;23.368;2022-07-29T03:57:28;9.10;;;7.30;;
61291;SDS011;47165;42.664;23.368;2022-07-29T03:59:55;13.90;;;7.40;;
61291;SDS011;47165;42.664;23.368;2022-07-29T04:02:21;12.40;;;7.90;;
61291;SDS011;47165;42.664;23.368;2022-07-29T04:04:48;10.80;;;7.05;;
61291;SDS011;47165;42.664;23.368;2022-07-29T04:07:14;15.80;;;8.07;;
61291;SDS011;47165;42.664;23.368;2022-07-29T04:09:40;10.18;;;7.35;;
61291;SDS011;47165;42.664;23.368;2022-07-29T04:12:06;12.05;;;7.43;;
61291;SDS011;47165;42.664;23.368;2022-07-29T04:14:32;12.23;;;7.43;;
61291;SDS011;47165;42.664;23.368;2022-07-29T04:16:59;9.10;;;6.57;;
61291;SDS011;47165;42.664;23.368;2022-07-29T04:19:28;13.80;;;7.38;;
61291;SDS011;47165;42.664;23.368;2022-07-29T04:21:54;8.73;;;6.13;;
61291;SDS011;47165;42.664;23.368;2022-07-29T04:24:19;9.27;;;6.70;;
61291;SDS011;47165;42.664;23.368;2022-07-29T04:26:45;9.35;;;6.40;;
61291;SDS011;47165;42.664;23.368;2022-07-29T04:29:11;11.60;;;7.40;;
61291;SDS011;47165;42.664;23.368;2022-07-29T04:31:39;11.80;;;6.93;;
61291;SDS011;47165;42.664;23.368;2022-07-29T04:34:05;8.93;;;6.50;;
61291;SDS011;47165;42.664;23.368;2022-07-29T04:36:31;9.80;;;6.13;;
61291;SDS011;47165;42.664;23.368;2022-07-29T04:38:56;9.90;;;6.57;;
61291;SDS011;47165;42.664;23.368;2022-07-29T04:41:22;8.98;;;6.03;;
61291;SDS011;47165;42.664;23.368;2022-07-29T04:43:48;9.85;;;6.00;;
61291;SDS011;47165;42.664;23.368;2022-07-29T04:46:14;10.18;;;6.50;;
61291;SDS011;47165;42.664;23.368;2022-07-29T04:48:39;9.82;;;6.22;;
61291;SDS011;47165;42.664;23.368;2022-07-29T04:51:04;6.97;;;5.00;;
61291;SDS011;47165;42.664;23.368;2022-07-29T04:53:30;8.10;;;5.78;;
61291;SDS011;47165;42.664;23.368;2022-07-29T04:55:55;6.75;;;4.85;;
61291;SDS011;47165;42.664;23.368;2022-07-29T04:58:21;9.75;;;5.43;;
61291;SDS011;47165;42.664;23.368;2022-07-29T05:00:48;9.63;;;5.30;;
61291;SDS011;47165;42.664;23.368;2022-07-29T05:03:14;8.90;;;5.57;;
61291;SDS011;47165;42.664;23.368;2022-07-29T05:05:39;7.28;;;4.78;;
61291;SDS011;47165;42.664;23.368;2022-07-29T05:08:05;9.35;;;5.90;;
61291;SDS011;47165;42.664;23.368;2022-07-29T05:10:31;7.38;;;5.15;;
61291;SDS011;47165;42.664;23.368;2022-07-29T05:12:57;7.30;;;4.80;;
61291;SDS011;47165;42.664;23.368;2022-07-29T05:15:23;7.50;;;5.50;;
61291;SDS011;47165;42.664;23.368;2022-07-29T05:17:48;10.73;;;5.65;;
61291;SDS011;47165;42.664;23.368;2022-07-29T05:20:14;7.95;;;5.38;;
61291;SDS011;47165;42.664;23.368;2022-07-29T05:22:39;8.55;;;5.25;;
61291;SDS011;47165;42.664;23.368;2022-07-29T05:25:05;15.23;;;5.88;;
61291;SDS011;47165;42.664;23.368;2022-07-29T05:27:31;8.52;;;5.20;;
61291;SDS011;47165;42.664;23.368;2022-07-29T05:29:56;8.77;;;5.30;;
61291;SDS011;47165;42.664;23.368;2022-07-29T05:32:22;10.20;;;5.38;;
61291;SDS011;47165;42.664;23.368;2022-07-29T05:34:47;8.13;;;5.57;;
61291;SDS011;47165;42.664;23.368;2022-07-29T05:37:12;8.02;;;4.93;;
61291;SDS011;47165;42.664;23.368;2022-07-29T05:39:38;7.75;;;5.25;;
61291;SDS011;47165;42.664;23.368;2022-07-29T05:42:07;8.98;;;6.18;;
61291;SDS011;47165;42.664;23.368;2022-07-29T05:44:37;9.52;;;6.55;;
61291;SDS011;47165;42.664;23.368;2022-07-29T05:47:03;8.68;;;6.43;;
61291;SDS011;47165;42.664;23.368;2022-07-29T05:49:29;8.27;;;6.00;;
61291;SDS011;47165;42.664;23.368;2022-07-29T05:51:54;13.88;;;8.80;;
61291;SDS011;47165;42.664;23.368;2022-07-29T05:54:20;10.00;;;7.13;;
61291;SDS011;47165;42.664;23.368;2022-07-29T05:56:45;12.27;;;7.88;;
61291;SDS011;47165;42.664;23.368;2022-07-29T05:59:11;9.43;;;5.82;;
61291;SDS011;47165;42.664;23.368;2022-07-29T06:01:36;8.73;;;6.30;;
61291;SDS011;47165;42.664;23.368;2022-07-29T06:04:04;7.80;;;5.80;;
61291;SDS011;47165;42.664;23.368;2022-07-29T06:06:30;8.30;;;5.78;;
61291;SDS011;47165;42.664;23.368;2022-07-29T06:08:56;9.90;;;5.85;;
61291;SDS011;47165;42.664;23.368;2022-07-29T06:11:21;9.18;;;6.43;;
61291;SDS011;47165;42.664;23.368;2022-07-29T06:13:46;11.45;;;6.15;;
61291;SDS011;47165;42.664;23.368;2022-07-29T06:16:12;11.07;;;5.43;;
61291;SDS011;47165;42.664;23.368;2022-07-29T06:18:37;11.95;;;5.53;;
61291;SDS011;47165;42.664;23.368;2022-07-29T06:21:06;6.55;;;4.47;;
61291;SDS011;47165;42.664;23.368;2022-07-29T06:23:33;9.20;;;5.43;;
61291;SDS011;47165;42.664;23.368;2022-07-29T06:25:59;7.82;;;5.82;;
61291;SDS011;47165;42.664;23.368;2022-07-29T06:28:25;9.05;;;5.35;;
61291;SDS011;47165;42.664;23.368;2022-07-29T06:30:51;8.27;;;5.93;;
61291;SDS011;47165;42.664;23.368;2022-07-29T06:33:17;9.45;;;5.95;;
61291;SDS011;47165;42.664;23.368;2022-07-29T06:35:43;9.73;;;5.30;;
61291;SDS011;47165;42.664;23.368;2022-07-29T06:38:10;9.48;;;5.70;;
61291;SDS011;47165;42.664;23.368;2022-07-29T06:40:36;7.78;;;5.80;;
61291;SDS011;47165;42.664;23.368;2022-07-29T06:43:20;10.55;;;5.50;;
61291;SDS011;47165;42.664;23.368;2022-07-29T06:45:45;8.32;;;5.88;;
61291;SDS011;47165;42.664;23.368;2022-07-29T06:48:11;7.88;;;5.68;;
61291;SDS011;47165;42.664;23.368;2022-07-29T06:50:36;9.80;;;5.30;;
61291;SDS011;47165;42.664;23.368;2022-07-29T06:53:02;8.40;;;5.85;;
61291;SDS011;47165;42.664;23.368;2022-07-29T06:55:28;7.38;;;5.50;;
61291;SDS011;47165;42.664;23.368;2022-07-29T06:57:53;7.28;;;5.13;;
61291;SDS011;47165;42.664;23.368;2022-07-29T07:00:19;6.57;;;4.95;;
61291;SDS011;47165;42.664;23.368;2022-07-29T07:02:45;6.05;;;4.63;;
61291;SDS011;47165;42.664;23.368;2022-07-29T07:05:10;7.65;;;5.07;;
61291;SDS011;47165;42.664;23.368;2022-07-29T07:07:35;6.75;;;4.72;;
61291;SDS011;47165;42.664;23.368;2022-07-29T07:10:01;8.00;;;4.97;;
61291;SDS011;47165;42.664;23.368;2022-07-29T07:12:26;5.18;;;4.38;;
61291;SDS011;47165;42.664;23.368;2022-07-29T07:14:52;7.63;;;5.32;;
61291;SDS011;47165;42.664;23.368;2022-07-29T07:17:17;6.10;;;4.72;;
61291;SDS011;47165;42.664;23.368;2022-07-29T07:19:43;10.27;;;5.15;;
61291;SDS011;47165;42.664;23.368;2022-07-29T07:22:10;10.82;;;4.32;;
61291;SDS011;47165;42.664;23.368;2022-07-29T07:24:35;5.75;;;4.30;;
61291;SDS011;47165;42.664;23.368;2022-07-29T07:27:00;5.28;;;4.30;;
61291;SDS011;47165;42.664;23.368;2022-07-29T07:29:26;6.97;;;4.90;;
61291;SDS011;47165;42.664;23.368;2022-07-29T07:31:52;10.10;;;5.22;;
61291;SDS011;47165;42.664;23.368;2022-07-29T07:34:17;7.35;;;5.20;;
61291;SDS011;47165;42.664;23.368;2022-07-29T07:36:43;6.10;;;4.28;;
61291;SDS011;47165;42.664;23.368;2022-07-29T07:39:08;4.85;;;3.90;;
61291;SDS011;47165;42.664;23.368;2022-07-29T07:41:33;7.88;;;4.28;;
61291;SDS011;47165;42.664;23.368;2022-07-29T07:43:59;9.35;;;5.28;;
61291;SDS011;47165;42.664;23.368;2022-07-29T07:46:25;11.23;;;4.68;;
61291;SDS011;47165;42.664;23.368;2022-07-29T07:48:50;6.10;;;4.15;;
61291;SDS011;47165;42.664;23.368;2022-07-29T07:51:17;5.65;;;4.15;;
61291;SDS011;47165;42.664;23.368;2022-07-29T07:53:42;5.57;;;3.85;;
61291;SDS011;47165;42.664;23.368;2022-07-29T07:56:09;8.05;;;4.43;;
61291;SDS011;47165;42.664;23.368;2022-07-29T07:58:35;5.90;;;5.07;;
61291;SDS011;47165;42.664;23.368;2022-07-29T08:01:01;4.32;;;3.88;;
61291;SDS011;47165;42.664;23.368;2022-07-29T08:03:26;13.55;;;5.32;;
61291;SDS011;47165;42.664;23.368;2022-07-29T08:05:52;5.55;;;3.70;;
61291;SDS011;47165;42.664;23.368;2022-07-29T08:08:19;8.45;;;3.90;;
61291;SDS011;47165;42.664;23.368;2022-07-29T08:10:45;7.47;;;4.10;;
61291;SDS011;47165;42.664;23.368;2022-07-29T08:13:24;6.53;;;4.07;;
61291;SDS011;47165;42.664;23.368;2022-07-29T08:15:55;4.60;;;3.13;;
61291;SDS011;47165;42.664;23.368;2022-07-29T08:18:36;5.63;;;3.92;;
61291;SDS011;47165;42.664;23.368;2022-07-29T08:21:02;6.85;;;4.00;;
61291;SDS011;47165;42.664;23.368;2022-07-29T08:23:28;5.97;;;3.95;;
61291;SDS011;47165;42.664;23.368;2022-07-29T08:26:03;3.92;;;3.33;;
61291;SDS011;47165;42.664;23.368;2022-07-29T08:28:29;4.30;;;3.30;;
61291;SDS011;47165;42.664;23.368;2022-07-29T08:30:54;5.22;;;3.30;;
61291;SDS011;47165;42.664;23.368;2022-07-29T08:33:19;3.92;;;2.85;;
61291;SDS011;47165;42.664;23.368;2022-07-29T08:35:45;8.35;;;3.70;;
61291;SDS011;47165;42.664;23.368;2022-07-29T08:38:10;5.07;;;4.03;;
61291;SDS011;47165;42.664;23.368;2022-07-29T08:40:36;8.15;;;4.20;;
61291;SDS011;47165;42.664;23.368;2022-07-29T08:43:08;4.38;;;3.67;;
61291;SDS011;47165;42.664;23.368;2022-07-29T08:45:43;5.07;;;3.35;;
61291;SDS011;47165;42.664;23.368;2022-07-29T08:48:14;7.25;;;5.00;;
61291;SDS011;47165;42.664;23.368;2022-07-29T08:50:42;7.40;;;4.90;;
61291;SDS011;47165;42.664;23.368;2022-07-29T08:53:13;7.40;;;3.67;;
61291;SDS011;47165;42.664;23.368;2022-07-29T08:55:41;6.53;;;3.80;;
61291;SDS011;47165;42.664;23.368;2022-07-29T08:58:07;5.18;;;2.97;;
61291;SDS011;47165;42.664;23.368;2022-07-29T09:00:33;4.03;;;3.17;;
61291;SDS011;47165;42.664;23.368;2022-07-29T09:03:01;4.88;;;3.28;;
61291;SDS011;47165;42.664;23.368;2022-07-29T09:05:29;4.55;;;3.53;;
61291;SDS011;47165;42.664;23.368;2022-07-29T09:07:55;5.95;;;2.50;;
61291;SDS011;47165;42.664;23.368;2022-07-29T09:10:20;4.50;;;3.50;;
61291;SDS011;47165;42.664;23.368;2022-07-29T09:12:46;4.55;;;3.08;;
61291;SDS011;47165;42.664;23.368;2022-07-29T09:15:13;3.55;;;2.90;;
61291;SDS011;47165;42.664;23.368;2022-07-29T09:17:42;4.65;;;3.17;;
61291;SDS011;47165;42.664;23.368;2022-07-29T09:20:13;3.15;;;2.83;;
61291;SDS011;47165;42.664;23.368;2022-07-29T09:22:42;5.78;;;3.38;;
61291;SDS011;47165;42.664;23.368;2022-07-29T09:25:11;6.75;;;3.40;;
61291;SDS011;47165;42.664;23.368;2022-07-29T09:27:36;9.38;;;3.90;;
61291;SDS011;47165;42.664;23.368;2022-07-29T09:30:08;3.85;;;3.08;;
61291;SDS011;47165;42.664;23.368;2022-07-29T09:32:57;7.13;;;3.85;;
61291;SDS011;47165;42.664;23.368;2022-07-29T09:35:23;5.35;;;3.88;;
61291;SDS011;47165;42.664;23.368;2022-07-29T09:37:50;10.70;;;4.30;;
61291;SDS011;47165;42.664;23.368;2022-07-29T09:40:17;5.53;;;4.10;;
61291;SDS011;47165;42.664;23.368;2022-07-29T09:42:52;5.60;;;3.97;;
61291;SDS011;47165;42.664;23.368;2022-07-29T09:45:30;6.10;;;4.18;;
61291;SDS011;47165;42.664;23.368;2022-07-29T09:47:57;6.85;;;4.40;;
61291;SDS011;47165;42.664;23.368;2022-07-29T09:53:30;6.47;;;4.90;;
61291;SDS011;47165;42.664;23.368;2022-07-29T09:55:57;6.40;;;4.20;;
61291;SDS011;47165;42.664;23.368;2022-07-29T09:58:23;24.42;;;7.15;;
61291;SDS011;47165;42.664;23.368;2022-07-29T10:00:49;88.47;;;21.23;;
61291;SDS011;47165;42.664;23.368;2022-07-29T10:03:16;55.35;;;14.38;;
61291;SDS011;47165;42.664;23.368;2022-07-29T10:05:43;12.55;;;5.45;;
61291;SDS011;47165;42.664;23.368;2022-07-29T10:08:10;4.57;;;3.20;;
61291;SDS011;47165;42.664;23.368;2022-07-29T10:10:38;5.30;;;3.47;;
61291;SDS011;47165;42.664;23.368;2022-07-29T10:13:10;7.63;;;3.75;;
61291;SDS011;47165;42.664;23.368;2022-07-29T10:15:38;7.63;;;3.50;;
61291;SDS011;47165;42.664;23.368;2022-07-29T10:18:06;5.03;;;3.60;;
61291;SDS011;47165;42.664;23.368;2022-07-29T10:20:32;5.28;;;3.00;;
61291;SDS011;47165;42.664;23.368;2022-07-29T10:22:58;7.43;;;3.53;;
61291;SDS011;47165;42.664;23.368;2022-07-29T10:25:24;6.30;;;3.53;;
61291;SDS011;47165;42.664;23.368;2022-07-29T10:27:50;4.43;;;3.20;;
61291;SDS011;47165;42.664;23.368;2022-07-29T10:30:17;4.70;;;3.45;;
61291;SDS011;47165;42.664;23.368;2022-07-29T10:41:01;3.50;;;3.15;;
61291;SDS011;47165;42.664;23.368;2022-07-29T10:43:49;5.22;;;3.38;;
61291;SDS011;47165;42.664;23.368;2022-07-29T10:46:17;6.28;;;3.45;;
61291;SDS011;47165;42.664;23.368;2022-07-29T10:54:18;5.63;;;3.38;;
61291;SDS011;47165;42.664;23.368;2022-07-29T10:57:15;5.00;;;3.17;;
61291;SDS011;47165;42.664;23.368;2022-07-29T10:59:44;4.32;;;3.10;;
61291;SDS011;47165;42.664;23.368;2022-07-29T11:07:28;3.67;;;2.95;;
61291;SDS011;47165;42.664;23.368;2022-07-29T11:15:04;4.80;;;3.22;;
61291;SDS011;47165;42.664;23.368;2022-07-29T11:18:16;7.10;;;3.15;;
61291;SDS011;47165;42.664;23.368;2022-07-29T11:39:49;4.47;;;3.40;;
61291;SDS011;47165;42.664;23.368;2022-07-29T11:45:18;4.80;;;3.40;;
61291;SDS011;47165;42.664;23.368;2022-07-29T11:50:11;5.57;;;3.55;;
61291;SDS011;47165;42.664;23.368;2022-07-29T11:52:39;4.93;;;3.78;;
61291;SDS011;47165;42.664;23.368;2022-07-29T11:55:12;3.50;;;3.20;;
61291;SDS011;47165;42.664;23.368;2022-07-29T11:57:52;6.10;;;3.78;;
61291;SDS011;47165;42.664;23.368;2022-07-29T12:02:59;5.95;;;3.83;;
61291;SDS011;47165;42.664;23.368;2022-07-29T12:05:44;6.45;;;3.72;;
61291;SDS011;47165;42.664;23.368;2022-07-29T12:08:17;3.95;;;2.90;;
61291;SDS011;47165;42.664;23.368;2022-07-29T12:10:46;5.28;;;3.75;;
61291;SDS011;47165;42.664;23.368;2022-07-29T12:13:13;5.57;;;4.15;;
61291;SDS011;47165;42.664;23.368;2022-07-29T12:15:40;7.10;;;3.60;;
61291;SDS011;47165;42.664;23.368;2022-07-29T12:18:16;5.85;;;3.80;;
61291;SDS011;47165;42.664;23.368;2022-07-29T12:20:43;4.40;;;4.00;;
61291;SDS011;47165;42.664;23.368;2022-07-29T12:23:09;5.07;;;3.50;;
61291;SDS011;47165;42.664;23.368;2022-07-29T12:25:37;6.10;;;4.80;;
61291;SDS011;47165;42.664;23.368;2022-07-29T12:28:04;7.40;;;6.00;;
61291;SDS011;47165;42.664;23.368;2022-07-29T12:30:42;7.70;;;4.70;;
61291;SDS011;47165;42.664;23.368;2022-07-29T12:33:34;10.93;;;5.60;;
61291;SDS011;47165;42.664;23.368;2022-07-29T12:36:00;5.90;;;4.18;;
61291;SDS011;47165;42.664;23.368;2022-07-29T12:38:27;4.75;;;4.20;;
61291;SDS011;47165;42.664;23.368;2022-07-29T12:40:53;4.20;;;3.80;;
61291;SDS011;47165;42.664;23.368;2022-07-29T12:43:20;6.53;;;3.75;;
61291;SDS011;47165;42.664;23.368;2022-07-29T12:45:48;4.68;;;3.40;;
61291;SDS011;47165;42.664;23.368;2022-07-29T12:48:15;4.40;;;3.63;;
61291;SDS011;47165;42.664;23.368;2022-07-29T12:50:54;5.03;;;4.30;;
61291;SDS011;47165;42.664;23.368;2022-07-29T12:53:21;5.40;;;4.55;;
61291;SDS011;47165;42.664;23.368;2022-07-29T12:55:49;4.32;;;3.90;;
61291;SDS011;47165;42.664;23.368;2022-07-29T12:58:31;6.22;;;4.28;;
61291;SDS011;47165;42.664;23.368;2022-07-29T13:01:15;4.53;;;3.88;;
61291;SDS011;47165;42.664;23.368;2022-07-29T13:03:55;8.57;;;6.07;;
61291;SDS011;47165;42.664;23.368;2022-07-29T13:06:41;4.90;;;3.88;;
61291;SDS011;47165;42.664;23.368;2022-07-29T13:11:42;7.93;;;4.43;;
61291;SDS011;47165;42.664;23.368;2022-07-29T13:14:10;5.90;;;3.83;;
61291;SDS011;47165;42.664;23.368;2022-07-29T13:16:37;5.20;;;4.35;;
61291;SDS011;47165;42.664;23.368;2022-07-29T13:19:36;4.88;;;4.00;;
61291;SDS011;47165;42.664;23.368;2022-07-29T13:22:02;5.07;;;3.95;;
61291;SDS011;47165;42.664;23.368;2022-07-29T13:24:29;7.03;;;4.38;;
61291;SDS011;47165;42.664;23.368;2022-07-29T13:26:54;6.60;;;4.68;;
61291;SDS011;47165;42.664;23.368;2022-07-29T13:29:20;5.15;;;4.30;;
61291;SDS011;47165;42.664;23.368;2022-07-29T13:31:45;3.80;;;3.40;;
61291;SDS011;47165;42.664;23.368;2022-07-29T13:34:10;5.50;;;4.32;;
61291;SDS011;47165;42.664;23.368;2022-07-29T13:36:36;4.45;;;3.83;;
61291;SDS011;47165;42.664;23.368;2022-07-29T13:39:01;6.03;;;4.30;;
61291;SDS011;47165;42.664;23.368;2022-07-29T13:41:28;4.53;;;3.92;;
61291;SDS011;47165;42.664;23.368;2022-07-29T13:43:54;4.70;;;4.25;;
61291;SDS011;47165;42.664;23.368;2022-07-29T13:46:19;6.63;;;4.25;;
61291;SDS011;47165;42.664;23.368;2022-07-29T13:48:45;4.43;;;3.60;;
61291;SDS011;47165;42.664;23.368;2022-07-29T13:51:10;5.47;;;3.58;;
61291;SDS011;47165;42.664;23.368;2022-07-29T13:53:36;6.10;;;3.67;;
61291;SDS011;47165;42.664;23.368;2022-07-29T13:56:01;6.68;;;4.18;;
61291;SDS011;47165;42.664;23.368;2022-07-29T13:58:26;5.00;;;4.40;;
61291;SDS011;47165;42.664;23.368;2022-07-29T14:00:52;4.65;;;4.05;;
61291;SDS011;47165;42.664;23.368;2022-07-29T14:03:18;4.88;;;3.85;;
61291;SDS011;47165;42.664;23.368;2022-07-29T14:05:43;4.32;;;3.88;;
61291;SDS011;47165;42.664;23.368;2022-07-29T14:08:09;6.53;;;3.60;;
61291;SDS011;47165;42.664;23.368;2022-07-29T14:10:34;4.32;;;3.63;;
61291;SDS011;47165;42.664;23.368;2022-07-29T14:13:00;5.00;;;4.22;;
61291;SDS011;47165;42.664;23.368;2022-07-29T14:15:25;5.47;;;4.10;;
61291;SDS011;47165;42.664;23.368;2022-07-29T14:17:51;6.10;;;4.00;;
61291;SDS011;47165;42.664;23.368;2022-07-29T14:20:16;7.32;;;5.18;;
61291;SDS011;47165;42.664;23.368;2022-07-29T14:22:42;4.95;;;4.20;;
61291;SDS011;47165;42.664;23.368;2022-07-29T14:25:08;4.85;;;4.35;;
61291;SDS011;47165;42.664;23.368;2022-07-29T14:27:34;6.07;;;3.85;;
61291;SDS011;47165;42.664;23.368;2022-07-29T14:29:59;5.80;;;4.25;;
61291;SDS011;47165;42.664;23.368;2022-07-29T14:32:24;4.47;;;3.85;;
61291;SDS011;47165;42.664;23.368;2022-07-29T14:34:50;4.43;;;4.03;;
61291;SDS011;47165;42.664;23.368;2022-07-29T14:37:15;4.55;;;3.95;;
61291;SDS011;47165;42.664;23.368;2022-07-29T14:39:41;6.28;;;4.40;;
61291;SDS011;47165;42.664;23.368;2022-07-29T14:42:06;4.82;;;4.18;;
61291;SDS011;47165;42.664;23.368;2022-07-29T14:44:32;5.63;;;4.25;;
61291;SDS011;47165;42.664;23.368;2022-07-29T14:46:58;5.95;;;4.20;;
61291;SDS011;47165;42.664;23.368;2022-07-29T14:49:25;4.80;;;4.10;;
61291;SDS011;47165;42.664;23.368;2022-07-29T14:51:51;4.78;;;3.95;;
61291;SDS011;47165;42.664;23.368;2022-07-29T14:54:16;5.78;;;4.10;;
61291;SDS011;47165;42.664;23.368;2022-07-29T14:56:42;4.43;;;3.78;;
61291;SDS011;47165;42.664;23.368;2022-07-29T14:59:07;5.25;;;4.28;;
61291;SDS011;47165;42.664;23.368;2022-07-29T15:01:33;8.27;;;4.90;;
61291;SDS011;47165;42.664;23.368;2022-07-29T15:03:58;5.95;;;4.30;;
61291;SDS011;47165;42.664;23.368;2022-07-29T15:06:24;6.38;;;4.55;;
61291;SDS011;47165;42.664;23.368;2022-07-29T15:08:49;5.15;;;4.40;;
61291;SDS011;47165;42.664;23.368;2022-07-29T15:11:14;12.10;;;5.40;;
61291;SDS011;47165;42.664;23.368;2022-07-29T15:13:40;4.30;;;3.90;;
61291;SDS011;47165;42.664;23.368;2022-07-29T15:16:05;6.75;;;5.00;;
61291;SDS011;47165;42.664;23.368;2022-07-29T15:18:31;7.38;;;4.68;;
61291;SDS011;47165;42.664;23.368;2022-07-29T15:20:57;5.03;;;4.40;;
61291;SDS011;47165;42.664;23.368;2022-07-29T15:23:22;4.15;;;3.75;;
61291;SDS011;47165;42.664;23.368;2022-07-29T15:25:47;9.02;;;4.60;;
61291;SDS011;47165;42.664;23.368;2022-07-29T15:28:13;5.60;;;4.10;;
61291;SDS011;47165;42.664;23.368;2022-07-29T15:30:38;4.30;;;3.75;;
61291;SDS011;47165;42.664;23.368;2022-07-29T15:33:07;6.95;;;3.78;;
61291;SDS011;47165;42.664;23.368;2022-07-29T15:35:34;6.15;;;3.95;;
61291;SDS011;47165;42.664;23.368;2022-07-29T15:38:00;5.00;;;3.53;;
61291;SDS011;47165;42.664;23.368;2022-07-29T15:40:26;3.92;;;3.53;;
61291;SDS011;47165;42.664;23.368;2022-07-29T15:42:52;7.70;;;4.53;;
61291;SDS011;47165;42.664;23.368;2022-07-29T15:45:17;5.75;;;3.67;;
61291;SDS011;47165;42.664;23.368;2022-07-29T15:47:43;4.03;;;3.50;;
61291;SDS011;47165;42.664;23.368;2022-07-29T15:50:08;5.10;;;4.13;;
61291;SDS011;47165;42.664;23.368;2022-07-29T15:52:39;10.38;;;3.97;;
61291;SDS011;47165;42.664;23.368;2022-07-29T15:55:05;4.72;;;3.88;;